sensor_id;sensor_type;location;lat;lon;timestamp;temperature;humidity
5919;DHT22;2985;48.142;16.344;2022-09-09T00:04:35;16.20;99.90
5919;DHT22;2985;48.142;16.344;2022-09-09T00:15:24;16.20;99.90
5919;DHT22;2985;48.142;16.344;2022-09-09T00:21:29;16.10;99.90
5919;DHT22;2985;48.142;16.344;2022-09-09T00:31:39;16.10;99.90
5919;DHT22;2985;48.142;16.344;2022-09-09T00:36:50;16.00;99.90
5919;DHT22;2985;48.142;16.344;2022-09-09T00:42:17;16.00;99.90
5919;DHT22;2985;48.142;16.344;2022-09-09T00:52:59;15.90;99.90
5919;DHT22;2985;48.142;16.344;2022-09-09T00:58:10;15.80;99.90
5919;DHT22;2985;48.142;16.344;2022-09-09T01:03:26;15.80;99.90
5919;DHT22;2985;48.142;16.344;2022-09-09T01:30:16;15.80;99.90
5919;DHT22;2985;48.142;16.344;2022-09-09T01:35:29;15.70;99.90
5919;DHT22;2985;48.142;16.344;2022-09-09T01:40:40;15.60;99.90
5919;DHT22;2985;48.142;16.344;2022-09-09T01:45:53;15.70;99.90
5919;DHT22;2985;48.142;16.344;2022-09-09T01:51:03;15.70;99.90
5919;DHT22;2985;48.142;16.344;2022-09-09T02:06:56;15.60;99.90
5919;DHT22;2985;48.142;16.344;2022-09-09T02:12:10;15.60;99.90
5919;DHT22;2985;48.142;16.344;2022-09-09T02:17:30;15.40;99.90
5919;DHT22;2985;48.142;16.344;2022-09-09T02:22:43;15.40;99.90
5919;DHT22;2985;48.142;16.344;2022-09-09T02:33:04;15.30;99.90
5919;DHT22;2985;48.142;16.344;2022-09-09T02:38:16;15.30;99.90
5919;DHT22;2985;48.142;16.344;2022-09-09T02:43:31;15.40;99.90
5919;DHT22;2985;48.142;16.344;2022-09-09T02:49:08;15.40;99.90
5919;DHT22;2985;48.142;16.344;2022-09-09T02:54:32;15.30;99.90
5919;DHT22;2985;48.142;16.344;2022-09-09T02:59:43;15.30;99.90
5919;DHT22;2985;48.142;16.344;2022-09-09T03:04:54;15.30;99.90
5919;DHT22;2985;48.142;16.344;2022-09-09T03:10:04;15.20;99.90
5919;DHT22;2985;48.142;16.344;2022-09-09T03:15:14;15.20;99.90
5919;DHT22;2985;48.142;16.344;2022-09-09T03:20:26;15.10;99.90
5919;DHT22;2985;48.142;16.344;2022-09-09T03:25:35;15.00;99.90
5919;DHT22;2985;48.142;16.344;2022-09-09T03:30:45;15.00;99.90
5919;DHT22;2985;48.142;16.344;2022-09-09T03:35:54;15.00;99.90
5919;DHT22;2985;48.142;16.344;2022-09-09T03:41:06;14.90;99.90
5919;DHT22;2985;48.142;16.344;2022-09-09T03:46:20;14.80;99.90
5919;DHT22;2985;48.142;16.344;2022-09-09T03:51:30;14.80;99.90
5919;DHT22;2985;48.142;16.344;2022-09-09T03:56:39;14.70;99.90
5919;DHT22;2985;48.142;16.344;2022-09-09T04:01:50;14.70;99.90
5919;DHT22;2985;48.142;16.344;2022-09-09T04:07:00;14.60;99.90
5919;DHT22;2985;48.142;16.344;2022-09-09T04:12:09;14.60;99.90
5919;DHT22;2985;48.142;16.344;2022-09-09T04:17:22;14.60;99.90
5919;DHT22;2985;48.142;16.344;2022-09-09T04:22:31;14.70;99.90
5919;DHT22;2985;48.142;16.344;2022-09-09T04:27:41;14.70;99.90
5919;DHT22;2985;48.142;16.344;2022-09-09T04:32:51;14.70;99.90
5919;DHT22;2985;48.142;16.344;2022-09-09T04:38:01;14.80;99.90
5919;DHT22;2985;48.142;16.344;2022-09-09T04:43:11;14.70;99.90
5919;DHT22;2985;48.142;16.344;2022-09-09T04:48:21;14.70;99.90
5919;DHT22;2985;48.142;16.344;2022-09-09T04:53:31;14.60;99.90
5919;DHT22;2985;48.142;16.344;2022-09-09T04:58:41;14.50;99.90
5919;DHT22;2985;48.142;16.344;2022-09-09T05:03:52;14.40;99.90
5919;DHT22;2985;48.142;16.344;2022-09-09T05:09:02;14.30;99.90
5919;DHT22;2985;48.142;16.344;2022-09-09T05:14:11;14.40;99.90
5919;DHT22;2985;48.142;16.344;2022-09-09T05:19:21;14.30;99.90
5919;DHT22;2985;48.142;16.344;2022-09-09T05:24:30;14.40;99.90
5919;DHT22;2985;48.142;16.344;2022-09-09T05:29:42;14.50;99.90
5919;DHT22;2985;48.142;16.344;2022-09-09T05:34:53;14.50;99.90
5919;DHT22;2985;48.142;16.344;2022-09-09T05:40:02;14.80;99.90
5919;DHT22;2985;48.142;16.344;2022-09-09T05:45:12;14.90;99.90
5919;DHT22;2985;48.142;16.344;2022-09-09T05:50:21;15.10;99.90
5919;DHT22;2985;48.142;16.344;2022-09-09T05:55:31;15.10;99.90
5919;DHT22;2985;48.142;16.344;2022-09-09T06:00:40;15.30;99.90
5919;DHT22;2985;48.142;16.344;2022-09-09T06:05:57;15.40;99.90
5919;DHT22;2985;48.142;16.344;2022-09-09T06:11:13;15.20;99.90
5919;DHT22;2985;48.142;16.344;2022-09-09T06:21:35;15.60;99.90
5919;DHT22;2985;48.142;16.344;2022-09-09T06:26:45;15.70;99.90
5919;DHT22;2985;48.142;16.344;2022-09-09T06:31:55;15.90;99.90
5919;DHT22;2985;48.142;16.344;2022-09-09T06:37:05;15.90;99.90
5919;DHT22;2985;48.142;16.344;2022-09-09T06:47:25;16.60;99.90
5919;DHT22;2985;48.142;16.344;2022-09-09T06:52:34;16.90;99.90
5919;DHT22;2985;48.142;16.344;2022-09-09T06:57:43;17.00;99.90
5919;DHT22;2985;48.142;16.344;2022-09-09T07:02:53;17.20;99.90
5919;DHT22;2985;48.142;16.344;2022-09-09T07:08:02;17.40;99.90
5919;DHT22;2985;48.142;16.344;2022-09-09T07:13:11;17.70;99.90
5919;DHT22;2985;48.142;16.344;2022-09-09T07:18:21;18.10;99.90
5919;DHT22;2985;48.142;16.344;2022-09-09T07:23:30;18.00;99.90
5919;DHT22;2985;48.142;16.344;2022-09-09T07:28:40;18.20;99.90
5919;DHT22;2985;48.142;16.344;2022-09-09T07:33:50;18.30;99.90
5919;DHT22;2985;48.142;16.344;2022-09-09T07:39:05;18.50;99.90
5919;DHT22;2985;48.142;16.344;2022-09-09T07:44:17;18.40;99.90
5919;DHT22;2985;48.142;16.344;2022-09-09T07:54:37;18.70;99.90
5919;DHT22;2985;48.142;16.344;2022-09-09T07:59:46;18.90;99.90
5919;DHT22;2985;48.142;16.344;2022-09-09T08:04:55;19.10;99.90
5919;DHT22;2985;48.142;16.344;2022-09-09T08:10:05;19.10;99.90
5919;DHT22;2985;48.142;16.344;2022-09-09T08:15:15;19.50;99.90
5919;DHT22;2985;48.142;16.344;2022-09-09T08:20:24;19.70;99.90
5919;DHT22;2985;48.142;16.344;2022-09-09T08:25:33;19.90;99.90
5919;DHT22;2985;48.142;16.344;2022-09-09T08:30:44;20.40;99.90
5919;DHT22;2985;48.142;16.344;2022-09-09T08:35:54;20.60;99.90
5919;DHT22;2985;48.142;16.344;2022-09-09T08:52:36;21.10;99.90
5919;DHT22;2985;48.142;16.344;2022-09-09T08:57:48;21.30;99.90
5919;DHT22;2985;48.142;16.344;2022-09-09T09:03:15;21.40;99.90
5919;DHT22;2985;48.142;16.344;2022-09-09T09:08:46;21.70;99.90
5919;DHT22;2985;48.142;16.344;2022-09-09T09:14:03;21.80;99.90
5919;DHT22;2985;48.142;16.344;2022-09-09T09:19:15;22.00;99.90
5919;DHT22;2985;48.142;16.344;2022-09-09T09:30:00;22.50;99.90
5919;DHT22;2985;48.142;16.344;2022-09-09T09:35:12;22.50;99.90
5919;DHT22;2985;48.142;16.344;2022-09-09T09:40:22;22.30;99.90
5919;DHT22;2985;48.142;16.344;2022-09-09T09:45:35;22.40;99.90
5919;DHT22;2985;48.142;16.344;2022-09-09T09:51:01;22.40;99.90
5919;DHT22;2985;48.142;16.344;2022-09-09T09:56:14;22.20;99.90
5919;DHT22;2985;48.142;16.344;2022-09-09T10:01:27;22.30;99.90
5919;DHT22;2985;48.142;16.344;2022-09-09T10:06:38;22.20;99.90
5919;DHT22;2985;48.142;16.344;2022-09-09T10:22:49;23.20;99.90
5919;DHT22;2985;48.142;16.344;2022-09-09T10:49:55;23.60;98.80
5919;DHT22;2985;48.142;16.344;2022-09-09T10:55:32;23.80;99.40
5919;DHT22;2985;48.142;16.344;2022-09-09T11:00:53;23.80;99.40
5919;DHT22;2985;48.142;16.344;2022-09-09T11:06:14;24.10;99.50
5919;DHT22;2985;48.142;16.344;2022-09-09T11:11:36;24.10;99.50
5919;DHT22;2985;48.142;16.344;2022-09-09T11:16:52;23.80;99.30
5919;DHT22;2985;48.142;16.344;2022-09-09T11:33:26;23.90;98.60
5919;DHT22;2985;48.142;16.344;2022-09-09T11:43:55;23.80;97.80
5919;DHT22;2985;48.142;16.344;2022-09-09T11:49:06;24.10;97.80
5919;DHT22;2985;48.142;16.344;2022-09-09T11:54:32;24.10;96.90
5919;DHT22;2985;48.142;16.344;2022-09-09T11:59:51;24.30;96.20
5919;DHT22;2985;48.142;16.344;2022-09-09T12:05:09;24.40;97.60
5919;DHT22;2985;48.142;16.344;2022-09-09T12:15:31;24.40;94.10
5919;DHT22;2985;48.142;16.344;2022-09-09T12:20:57;24.90;94.70
5919;DHT22;2985;48.142;16.344;2022-09-09T12:26:14;24.90;93.90
5919;DHT22;2985;48.142;16.344;2022-09-09T12:31:42;24.90;93.50
5919;DHT22;2985;48.142;16.344;2022-09-09T12:36:57;24.60;93.40
5919;DHT22;2985;48.142;16.344;2022-09-09T12:42:20;24.60;93.70
5919;DHT22;2985;48.142;16.344;2022-09-09T12:47:46;24.30;93.20
5919;DHT22;2985;48.142;16.344;2022-09-09T12:53:02;24.30;93.10
5919;DHT22;2985;48.142;16.344;2022-09-09T12:58:13;24.30;92.90
5919;DHT22;2985;48.142;16.344;2022-09-09T13:03:26;24.20;93.50
5919;DHT22;2985;48.142;16.344;2022-09-09T13:08:36;24.00;93.20
5919;DHT22;2985;48.142;16.344;2022-09-09T13:13:51;23.90;93.60
5919;DHT22;2985;48.142;16.344;2022-09-09T13:19:14;23.70;93.50
5919;DHT22;2985;48.142;16.344;2022-09-09T13:29:38;23.60;93.50
5919;DHT22;2985;48.142;16.344;2022-09-09T13:35:00;23.60;93.20
5919;DHT22;2985;48.142;16.344;2022-09-09T13:40:18;23.40;93.60
5919;DHT22;2985;48.142;16.344;2022-09-09T13:45:28;23.30;93.80
5919;DHT22;2985;48.142;16.344;2022-09-09T13:50:38;23.20;94.00
5919;DHT22;2985;48.142;16.344;2022-09-09T13:55:48;23.10;94.00
5919;DHT22;2985;48.142;16.344;2022-09-09T14:00:57;23.00;94.30
5919;DHT22;2985;48.142;16.344;2022-09-09T14:06:07;22.90;94.40
5919;DHT22;2985;48.142;16.344;2022-09-09T14:11:18;22.80;94.40
5919;DHT22;2985;48.142;16.344;2022-09-09T14:16:28;22.80;94.50
5919;DHT22;2985;48.142;16.344;2022-09-09T14:21:38;22.70;94.50
5919;DHT22;2985;48.142;16.344;2022-09-09T14:26:47;22.60;94.20
5919;DHT22;2985;48.142;16.344;2022-09-09T14:31:56;21.80;99.30
5919;DHT22;2985;48.142;16.344;2022-09-09T14:37:06;21.10;99.90
5919;DHT22;2985;48.142;16.344;2022-09-09T14:42:16;20.90;99.90
5919;DHT22;2985;48.142;16.344;2022-09-09T14:47:25;20.70;99.90
5919;DHT22;2985;48.142;16.344;2022-09-09T14:52:35;20.40;99.90
5919;DHT22;2985;48.142;16.344;2022-09-09T14:57:44;20.20;99.90
5919;DHT22;2985;48.142;16.344;2022-09-09T15:02:54;20.10;99.90
5919;DHT22;2985;48.142;16.344;2022-09-09T15:08:04;20.20;99.90
5919;DHT22;2985;48.142;16.344;2022-09-09T15:13:15;20.10;99.90
5919;DHT22;2985;48.142;16.344;2022-09-09T15:18:26;20.20;99.90
5919;DHT22;2985;48.142;16.344;2022-09-09T15:23:36;20.00;99.90
5919;DHT22;2985;48.142;16.344;2022-09-09T15:28:47;20.20;99.90
5919;DHT22;2985;48.142;16.344;2022-09-09T15:34:00;20.20;99.90
5919;DHT22;2985;48.142;16.344;2022-09-09T15:39:12;20.00;99.90
5919;DHT22;2985;48.142;16.344;2022-09-09T15:44:21;19.80;99.90
5919;DHT22;2985;48.142;16.344;2022-09-09T15:49:34;19.60;99.90
5919;DHT22;2985;48.142;16.344;2022-09-09T15:54:43;19.60;99.90
5919;DHT22;2985;48.142;16.344;2022-09-09T15:59:53;19.50;99.90
5919;DHT22;2985;48.142;16.344;2022-09-09T16:05:03;19.40;99.90
5919;DHT22;2985;48.142;16.344;2022-09-09T16:10:12;19.20;99.90
5919;DHT22;2985;48.142;16.344;2022-09-09T16:15:22;19.10;99.90
5919;DHT22;2985;48.142;16.344;2022-09-09T16:20:32;19.10;99.90
5919;DHT22;2985;48.142;16.344;2022-09-09T16:25:41;19.10;99.90
5919;DHT22;2985;48.142;16.344;2022-09-09T16:30:51;19.00;99.90
5919;DHT22;2985;48.142;16.344;2022-09-09T16:36:12;18.90;99.90
5919;DHT22;2985;48.142;16.344;2022-09-09T16:41:23;18.90;99.90
5919;DHT22;2985;48.142;16.344;2022-09-09T16:51:49;18.60;99.90
5919;DHT22;2985;48.142;16.344;2022-09-09T16:57:02;18.60;99.90
5919;DHT22;2985;48.142;16.344;2022-09-09T17:02:11;18.60;99.90
5919;DHT22;2985;48.142;16.344;2022-09-09T17:07:21;18.60;99.90
5919;DHT22;2985;48.142;16.344;2022-09-09T17:12:31;18.50;99.90
5919;DHT22;2985;48.142;16.344;2022-09-09T17:17:41;18.50;99.90
5919;DHT22;2985;48.142;16.344;2022-09-09T17:22:54;18.40;99.90
5919;DHT22;2985;48.142;16.344;2022-09-09T17:28:04;18.20;99.90
5919;DHT22;2985;48.142;16.344;2022-09-09T17:33:13;18.00;99.90
5919;DHT22;2985;48.142;16.344;2022-09-09T17:38:22;17.80;99.90
5919;DHT22;2985;48.142;16.344;2022-09-09T17:43:32;17.30;99.90
5919;DHT22;2985;48.142;16.344;2022-09-09T17:48:43;17.00;99.90
5919;DHT22;2985;48.142;16.344;2022-09-09T17:53:55;16.90;99.90
5919;DHT22;2985;48.142;16.344;2022-09-09T17:59:05;16.90;99.90
5919;DHT22;2985;48.142;16.344;2022-09-09T18:04:16;17.00;99.90
5919;DHT22;2985;48.142;16.344;2022-09-09T18:09:26;16.90;99.90
5919;DHT22;2985;48.142;16.344;2022-09-09T18:14:35;16.90;99.90
5919;DHT22;2985;48.142;16.344;2022-09-09T18:19:48;17.00;99.90
5919;DHT22;2985;48.142;16.344;2022-09-09T18:24:58;16.90;99.90
5919;DHT22;2985;48.142;16.344;2022-09-09T18:30:08;16.80;99.90
5919;DHT22;2985;48.142;16.344;2022-09-09T18:35:19;16.70;99.90
5919;DHT22;2985;48.142;16.344;2022-09-09T18:40:31;16.70;99.90
5919;DHT22;2985;48.142;16.344;2022-09-09T18:45:40;16.70;99.90
5919;DHT22;2985;48.142;16.344;2022-09-09T18:50:50;16.70;99.90
5919;DHT22;2985;48.142;16.344;2022-09-09T18:56:04;16.60;99.90
5919;DHT22;2985;48.142;16.344;2022-09-09T19:01:14;16.60;99.90
5919;DHT22;2985;48.142;16.344;2022-09-09T19:06:26;16.60;99.90
5919;DHT22;2985;48.142;16.344;2022-09-09T19:11:36;16.60;99.90
5919;DHT22;2985;48.142;16.344;2022-09-09T19:16:45;16.50;99.90
5919;DHT22;2985;48.142;16.344;2022-09-09T19:21:57;16.50;99.90
5919;DHT22;2985;48.142;16.344;2022-09-09T19:27:07;16.50;99.90
5919;DHT22;2985;48.142;16.344;2022-09-09T19:32:16;16.40;99.90
5919;DHT22;2985;48.142;16.344;2022-09-09T19:37:26;16.40;99.90
5919;DHT22;2985;48.142;16.344;2022-09-09T19:42:35;16.30;99.90
5919;DHT22;2985;48.142;16.344;2022-09-09T19:47:45;16.20;99.90
5919;DHT22;2985;48.142;16.344;2022-09-09T19:52:54;16.10;99.90
5919;DHT22;2985;48.142;16.344;2022-09-09T19:58:04;16.10;99.90
5919;DHT22;2985;48.142;16.344;2022-09-09T20:03:13;16.10;99.90
5919;DHT22;2985;48.142;16.344;2022-09-09T20:08:23;16.10;99.90
5919;DHT22;2985;48.142;16.344;2022-09-09T20:13:35;16.10;99.90
5919;DHT22;2985;48.142;16.344;2022-09-09T20:18:48;16.00;99.90
5919;DHT22;2985;48.142;16.344;2022-09-09T20:24:02;16.00;99.90
5919;DHT22;2985;48.142;16.344;2022-09-09T20:29:14;15.80;99.90
5919;DHT22;2985;48.142;16.344;2022-09-09T20:34:24;15.80;99.90
5919;DHT22;2985;48.142;16.344;2022-09-09T20:39:35;15.90;99.90
5919;DHT22;2985;48.142;16.344;2022-09-09T20:44:45;15.90;99.90
5919;DHT22;2985;48.142;16.344;2022-09-09T20:49:55;15.80;99.90
5919;DHT22;2985;48.142;16.344;2022-09-09T20:55:05;15.80;99.90
5919;DHT22;2985;48.142;16.344;2022-09-09T21:00:15;15.80;99.90
5919;DHT22;2985;48.142;16.344;2022-09-09T21:05:25;15.90;99.90
5919;DHT22;2985;48.142;16.344;2022-09-09T21:10:34;15.80;99.90
5919;DHT22;2985;48.142;16.344;2022-09-09T21:15:44;15.80;99.90
5919;DHT22;2985;48.142;16.344;2022-09-09T21:20:54;15.80;99.90
5919;DHT22;2985;48.142;16.344;2022-09-09T21:26:04;15.80;99.90
5919;DHT22;2985;48.142;16.344;2022-09-09T21:31:17;15.80;99.90
5919;DHT22;2985;48.142;16.344;2022-09-09T21:36:27;15.80;99.90
5919;DHT22;2985;48.142;16.344;2022-09-09T21:41:37;15.80;99.90
5919;DHT22;2985;48.142;16.344;2022-09-09T21:46:47;15.80;99.90
5919;DHT22;2985;48.142;16.344;2022-09-09T21:51:56;15.80;99.90
5919;DHT22;2985;48.142;16.344;2022-09-09T21:57:06;15.70;99.90
5919;DHT22;2985;48.142;16.344;2022-09-09T22:02:15;15.70;99.90
5919;DHT22;2985;48.142;16.344;2022-09-09T22:07:24;15.70;99.90
5919;DHT22;2985;48.142;16.344;2022-09-09T22:12:33;15.70;99.90
5919;DHT22;2985;48.142;16.344;2022-09-09T22:17:43;15.70;99.90
5919;DHT22;2985;48.142;16.344;2022-09-09T22:22:52;15.70;99.90
5919;DHT22;2985;48.142;16.344;2022-09-09T22:28:03;15.70;99.90
5919;DHT22;2985;48.142;16.344;2022-09-09T22:33:12;15.80;99.90
5919;DHT22;2985;48.142;16.344;2022-09-09T22:38:21;15.80;99.90
5919;DHT22;2985;48.142;16.344;2022-09-09T22:43:31;15.80;99.90
5919;DHT22;2985;48.142;16.344;2022-09-09T22:48:44;15.80;99.90
5919;DHT22;2985;48.142;16.344;2022-09-09T22:53:53;15.90;99.90
5919;DHT22;2985;48.142;16.344;2022-09-09T22:59:05;15.90;99.90
5919;DHT22;2985;48.142;16.344;2022-09-09T23:04:15;15.90;99.90
5919;DHT22;2985;48.142;16.344;2022-09-09T23:09:24;15.90;99.90
5919;DHT22;2985;48.142;16.344;2022-09-09T23:14:33;15.90;99.90
5919;DHT22;2985;48.142;16.344;2022-09-09T23:19:43;15.90;99.90
5919;DHT22;2985;48.142;16.344;2022-09-09T23:24:52;15.90;99.90
5919;DHT22;2985;48.142;16.344;2022-09-09T23:30:02;15.90;99.90
5919;DHT22;2985;48.142;16.344;2022-09-09T23:35:12;15.90;99.90
5919;DHT22;2985;48.142;16.344;2022-09-09T23:40:21;15.90;99.90
5919;DHT22;2985;48.142;16.344;2022-09-09T23:45:31;15.90;99.90
5919;DHT22;2985;48.142;16.344;2022-09-09T23:50:41;15.90;99.90
5919;DHT22;2985;48.142;16.344;2022-09-09T23:55:50;15.90;99.90
